Terminal Aerodrome Forecast
Issued by NWS Central Illinois

Home | Current Version | Previous Version | Text Only | Print | Product List | Glossary On
Versions: 1 2 3 4 5 6 7 8 9 10 11 12 13 14 15 16 17 18 19
000
FTUS43 KILX 241120
TAFPIA
TAF
KPIA 241120Z 2412/2512 VRB03KT P6SM OVC018
     FM241800 14008KT P6SM BKN025
     FM242100 14010KT P6SM BKN035
     FM250100 14012G20KT P6SM BKN015
     FM250500 15013G21KT P6SM VCSH BKN010=

USA.gov is the U.S. government's official web portal to all federal, state and local government web resources and services.